Terminal Aerodrome Forecast
Issued by NWS

Home | Current Version | Previous Version | Text Only | Print | Product List | Glossary On
Versions: 1 2 3 4 5 6 7 8 9 10 11 12 13 14 15 16
826
FTUS46 KEKA 131354 CCB
TAFUKI
TAF COR
KUKI 131354Z 1312/1412 VRB03KT P6SM FEW250
     FM131800 33006KT P6SM SKC
     FM140200 35006KT P6SM SKC
     FM140900 00000KT P6SM SKC=

USA.gov is the U.S. government's official web portal to all federal, state and local government web resources and services.